createdAt,value
2023-05-02T00:02:19.926Z,11.28
2023-05-02T00:04:47.130Z,11.36
2023-05-02T00:07:14.232Z,11.33
2023-05-02T00:09:41.475Z,11.41
2023-05-02T00:12:08.593Z,11.37
2023-05-02T00:14:35.738Z,11.30
2023-05-02T00:17:03.029Z,11.25
2023-05-02T00:19:30.059Z,11.36
2023-05-02T00:21:57.233Z,11.36
2023-05-02T00:24:24.165Z,11.31
2023-05-02T00:26:51.420Z,11.25
2023-05-02T00:29:18.471Z,11.21
2023-05-02T00:31:45.465Z,11.32
2023-05-02T00:34:12.461Z,11.31
2023-05-02T00:36:39.460Z,11.24
2023-05-02T00:39:06.464Z,11.26
2023-05-02T00:41:33.601Z,11.43
2023-05-02T00:44:00.918Z,11.40
2023-05-02T00:46:28.135Z,11.34
2023-05-02T00:48:55.230Z,11.24
2023-05-02T00:51:22.343Z,11.25
2023-05-02T00:53:49.868Z,11.29
2023-05-02T00:56:16.921Z,11.28
2023-05-02T00:58:45.601Z,11.43
2023-05-02T01:01:45.740Z,11.31
2023-05-02T01:04:37.670Z,11.25
2023-05-02T01:07:41.678Z,11.14
2023-05-02T01:10:30.607Z,11.35
2023-05-02T01:13:25.879Z,11.32
2023-05-02T01:15:56.174Z,11.26
2023-05-02T01:18:32.737Z,11.24
2023-05-02T01:21:04.733Z,11.23
2023-05-02T01:24:02.639Z,11.10
2023-05-02T01:27:03.040Z,11.12
2023-05-02T01:29:32.178Z,11.15
2023-05-02T01:32:01.027Z,11.03
2023-05-02T01:34:29.756Z,11.18
2023-05-02T01:36:59.392Z,11.09
2023-05-02T01:39:27.437Z,11.09
2023-05-02T01:41:59.652Z,10.95
2023-05-02T01:44:30.375Z,11.03
2023-05-02T01:47:00.577Z,11.03
2023-05-02T01:49:29.544Z,11.01
2023-05-02T01:51:58.531Z,11.06
2023-05-02T01:54:27.591Z,11.09
2023-05-02T01:56:56.684Z,11.03
2023-05-02T01:59:25.578Z,11.11
2023-05-02T02:01:54.181Z,10.93
2023-05-02T02:04:23.538Z,10.97
2023-05-02T02:07:03.568Z,10.93
2023-05-02T02:09:31.696Z,10.87
2023-05-02T02:12:16.060Z,10.84
2023-05-02T02:15:06.521Z,10.88
2023-05-02T02:17:43.263Z,10.77
2023-05-02T02:20:12.526Z,10.73
2023-05-02T02:22:42.746Z,10.80
2023-05-02T02:25:15.178Z,10.86
2023-05-02T02:27:42.495Z,10.80
2023-05-02T02:30:11.297Z,10.84
2023-05-02T02:32:38.368Z,10.76
2023-05-02T02:35:07.066Z,10.76
2023-05-02T02:37:40.817Z,10.73
2023-05-02T02:40:31.629Z,10.81
2023-05-02T02:43:20.687Z,10.59
2023-05-02T02:46:11.013Z,10.68
2023-05-02T02:49:30.392Z,10.58
2023-05-02T02:52:18.609Z,10.70
2023-05-02T02:55:20.521Z,10.58
2023-05-02T02:58:01.442Z,10.71
2023-05-02T03:00:29.471Z,10.68
2023-05-02T03:02:57.747Z,10.51
2023-05-02T03:05:25.498Z,10.42
2023-05-02T03:07:52.813Z,10.43
2023-05-02T03:10:21.953Z,10.45
2023-05-02T03:12:49.191Z,10.47
2023-05-02T03:15:53.994Z,10.38
2023-05-02T03:18:21.264Z,10.36
2023-05-02T03:20:48.347Z,10.27
2023-05-02T03:23:15.417Z,10.23
2023-05-02T03:25:42.916Z,10.23
2023-05-02T03:28:10.917Z,10.29
2023-05-02T03:30:40.901Z,10.39
2023-05-02T03:33:09.092Z,10.44
2023-05-02T03:35:36.268Z,10.32
2023-05-02T03:38:03.332Z,10.37
2023-05-02T03:40:30.448Z,10.26
2023-05-02T03:42:57.502Z,10.46
2023-05-02T03:45:24.615Z,10.38
2023-05-02T03:47:51.664Z,10.31
2023-05-02T03:50:19.204Z,10.43
2023-05-02T03:52:46.921Z,10.48
2023-05-02T03:55:14.090Z,10.66
2023-05-02T03:57:41.125Z,10.61
2023-05-02T04:00:09.089Z,10.79
2023-05-02T04:02:36.528Z,10.64
2023-05-02T04:05:04.125Z,10.82
2023-05-02T04:07:31.175Z,11.09
2023-05-02T04:09:58.553Z,11.06
2023-05-02T04:12:25.909Z,11.18
2023-05-02T04:14:53.082Z,11.81
2023-05-02T04:17:21.070Z,12.04
2023-05-02T04:19:50.471Z,12.47
2023-05-02T04:22:17.648Z,12.56
2023-05-02T04:24:44.702Z,12.91
2023-05-02T04:27:14.471Z,12.79
2023-05-02T04:29:42.213Z,13.33
2023-05-02T04:32:10.334Z,13.33
2023-05-02T04:34:37.610Z,13.44
2023-05-02T04:37:04.743Z,14.28
2023-05-02T04:39:31.875Z,14.81
2023-05-02T04:41:59.144Z,14.93
2023-05-02T04:44:26.306Z,14.45
2023-05-02T04:46:53.708Z,15.29
2023-05-02T04:49:20.960Z,15.53
2023-05-02T04:51:48.467Z,15.04
2023-05-02T04:54:15.814Z,15.28
2023-05-02T04:56:42.907Z,15.59
2023-05-02T04:59:10.004Z,16.61
2023-05-02T05:01:37.156Z,17.26
2023-05-02T05:04:04.619Z,18.52
2023-05-02T05:06:32.078Z,19.60
2023-05-02T05:08:59.469Z,21.26
2023-05-02T05:11:26.695Z,23.21
2023-05-02T05:13:53.740Z,24.14
2023-05-02T05:16:20.927Z,25.72
2023-05-02T05:18:49.361Z,27.45
2023-05-02T05:21:16.596Z,27.05
2023-05-02T05:23:46.196Z,27.22
2023-05-02T05:26:15.833Z,28.50
2023-05-02T05:28:44.043Z,28.42
2023-05-02T05:31:16.028Z,29.49
2023-05-02T05:33:44.398Z,30.35
2023-05-02T05:36:15.105Z,30.26
2023-05-02T05:38:42.420Z,30.50
2023-05-02T05:41:10.599Z,30.82
2023-05-02T05:43:38.411Z,30.83
2023-05-02T05:46:05.955Z,30.20
2023-05-02T05:48:32.938Z,26.49
2023-05-02T05:51:07.380Z,25.46
2023-05-02T05:53:34.762Z,24.85
2023-05-02T05:56:10.750Z,23.50
2023-05-02T05:58:38.628Z,23.07
2023-05-02T06:01:06.352Z,27.69
2023-05-02T06:03:33.698Z,30.11
2023-05-02T06:06:01.064Z,31.61
2023-05-02T06:08:28.189Z,28.41
2023-05-02T06:10:55.283Z,26.04
2023-05-02T06:13:22.397Z,24.13
2023-05-02T06:15:49.462Z,22.76
2023-05-02T06:18:16.766Z,24.06
2023-05-02T06:20:43.889Z,23.27
2023-05-02T06:23:10.930Z,22.32
2023-05-02T06:25:38.881Z,22.28
2023-05-02T06:28:06.276Z,22.18
2023-05-02T06:30:33.377Z,22.92
2023-05-02T06:33:00.704Z,24.39
2023-05-02T06:35:27.876Z,25.93
2023-05-02T06:37:55.088Z,28.36
2023-05-02T06:40:22.223Z,30.51
2023-05-02T06:42:49.267Z,31.94
2023-05-02T06:45:16.409Z,32.00
2023-05-02T06:47:43.486Z,32.63
2023-05-02T06:50:11.686Z,32.90
2023-05-02T06:52:38.706Z,33.19
2023-05-02T06:55:06.477Z,32.31
2023-05-02T06:57:33.605Z,31.94
2023-05-02T07:00:01.304Z,31.88
2023-05-02T07:02:28.698Z,32.42
2023-05-02T07:04:55.963Z,32.76
2023-05-02T07:07:23.027Z,32.31
2023-05-02T07:09:50.151Z,32.72
2023-05-02T07:12:17.194Z,32.66
2023-05-02T07:14:47.000Z,33.36
2023-05-02T07:17:14.255Z,31.80
2023-05-02T07:19:43.306Z,31.54
2023-05-02T07:22:11.864Z,32.18
2023-05-02T07:24:43.097Z,31.53
2023-05-02T07:27:12.326Z,31.40
2023-05-02T07:29:40.314Z,30.85
2023-05-02T07:32:07.428Z,31.43
2023-05-02T07:34:34.523Z,30.71
2023-05-02T07:37:01.644Z,30.83
2023-05-02T07:39:29.074Z,29.39
2023-05-02T07:41:56.638Z,29.29
2023-05-02T07:44:24.325Z,29.14
2023-05-02T07:46:52.787Z,29.64
2023-05-02T07:49:20.506Z,30.40
2023-05-02T07:51:47.599Z,30.64
2023-05-02T07:54:19.606Z,30.25
2023-05-02T07:56:47.405Z,30.10
2023-05-02T07:59:14.778Z,30.04
2023-05-02T08:01:42.160Z,29.48
2023-05-02T08:04:13.274Z,29.82
2023-05-02T08:06:41.082Z,30.16
2023-05-02T08:09:09.382Z,30.20
2023-05-02T08:11:36.476Z,28.84
2023-05-02T08:14:03.561Z,29.37
2023-05-02T08:16:30.721Z,30.23
2023-05-02T08:18:57.925Z,29.70
2023-05-02T08:21:25.062Z,29.77
2023-05-02T08:23:52.228Z,30.25
2023-05-02T08:26:21.917Z,30.48
2023-05-02T08:28:48.926Z,30.57
2023-05-02T08:31:16.199Z,30.02
2023-05-02T08:33:43.939Z,28.96
2023-05-02T08:36:16.614Z,29.26
2023-05-02T08:38:45.820Z,29.35
2023-05-02T08:41:19.957Z,29.31
2023-05-02T08:43:47.568Z,27.39
2023-05-02T08:46:17.605Z,28.31
2023-05-02T08:48:49.668Z,29.32
2023-05-02T08:53:52.199Z,28.71
2023-05-02T08:56:19.738Z,28.22
2023-05-02T08:58:47.138Z,28.27
2023-05-02T09:01:21.904Z,28.92
2023-05-02T09:03:49.713Z,28.57
2023-05-02T09:06:22.606Z,28.68
2023-05-02T09:08:54.800Z,28.50
2023-05-02T09:11:22.319Z,28.14
2023-05-02T09:13:52.716Z,28.19
2023-05-02T09:16:25.886Z,27.85
2023-05-02T09:18:55.016Z,27.01
2023-05-02T09:21:35.087Z,27.10
2023-05-02T09:24:03.961Z,27.15
2023-05-02T09:26:33.465Z,26.89
2023-05-02T09:29:03.231Z,26.59
2023-05-02T09:31:55.017Z,26.56
2023-05-02T09:34:24.778Z,26.04
2023-05-02T09:36:54.761Z,25.99
2023-05-02T09:39:29.336Z,24.75
2023-05-02T09:41:58.508Z,24.51
2023-05-02T09:44:36.170Z,24.99
2023-05-02T09:47:03.904Z,24.86
2023-05-02T09:49:46.713Z,25.26
2023-05-02T09:52:19.891Z,25.32
2023-05-02T09:54:47.589Z,25.42
2023-05-02T09:57:14.677Z,25.86
2023-05-02T09:59:42.496Z,25.54
2023-05-02T10:02:11.702Z,25.16
2023-05-02T10:04:40.500Z,25.18
2023-05-02T10:07:10.560Z,24.88
2023-05-02T10:09:44.457Z,25.51
2023-05-02T10:12:15.580Z,25.38
2023-05-02T10:14:51.918Z,25.11
2023-05-02T10:17:48.137Z,25.12
2023-05-02T10:20:23.503Z,24.99
2023-05-02T10:22:51.772Z,25.02
2023-05-02T10:25:19.088Z,24.83
2023-05-02T10:27:46.421Z,25.00
2023-05-02T10:30:14.172Z,24.88
2023-05-02T10:32:41.878Z,24.62
2023-05-02T10:35:10.408Z,24.60
2023-05-02T10:37:40.100Z,24.18
2023-05-02T10:40:14.233Z,23.85
2023-05-02T10:42:45.908Z,23.80
2023-05-02T10:45:35.169Z,23.58
2023-05-02T10:48:21.485Z,23.01
2023-05-02T10:53:36.425Z,22.59
2023-05-02T10:56:24.092Z,22.41
2023-05-02T10:58:53.627Z,22.25
2023-05-02T11:01:29.652Z,21.97
2023-05-02T11:04:05.104Z,21.63
2023-05-02T11:06:59.453Z,21.64
2023-05-02T11:09:29.386Z,21.37
2023-05-02T11:11:57.582Z,21.33
2023-05-02T11:14:30.869Z,21.13
2023-05-02T11:17:06.643Z,21.10
2023-05-02T11:19:39.297Z,21.14
2023-05-02T11:22:18.168Z,20.70
2023-05-02T11:24:49.608Z,20.39
2023-05-02T11:27:38.297Z,20.26
2023-05-02T11:30:09.972Z,20.18
2023-05-02T11:32:46.867Z,20.17
2023-05-02T11:35:23.772Z,20.36
2023-05-02T11:38:12.782Z,20.44
2023-05-02T11:40:39.955Z,20.40
2023-05-02T11:43:19.251Z,20.39
2023-05-02T11:45:46.645Z,20.23
2023-05-02T11:48:17.437Z,20.51
2023-05-02T11:50:51.385Z,20.73
2023-05-02T11:53:27.870Z,20.86
2023-05-02T11:56:01.109Z,20.89
2023-05-02T11:58:32.384Z,21.01
2023-05-02T12:01:16.010Z,21.12
2023-05-02T12:03:43.987Z,21.28
2023-05-02T12:06:14.869Z,21.32
2023-05-02T12:08:44.789Z,21.51
2023-05-02T12:11:16.849Z,21.77
2023-05-02T12:13:50.891Z,21.77
2023-05-02T12:16:19.886Z,22.46
2023-05-02T12:18:48.261Z,22.48
2023-05-02T12:21:16.970Z,22.45
2023-05-02T12:23:44.797Z,21.97
2023-05-02T12:26:24.356Z,22.03
2023-05-02T12:28:54.818Z,22.04
2023-05-02T12:31:23.055Z,21.97
2023-05-02T12:33:51.148Z,21.69
2023-05-02T12:36:19.775Z,21.64
2023-05-02T12:38:57.781Z,21.76
2023-05-02T12:41:39.069Z,21.96
2023-05-02T12:44:07.783Z,21.85
2023-05-02T12:46:36.164Z,21.83
2023-05-02T12:49:11.982Z,21.87
2023-05-02T12:51:40.279Z,22.19
2023-05-02T12:54:07.458Z,21.93
2023-05-02T12:56:43.710Z,21.93
2023-05-02T12:59:30.490Z,21.63
2023-05-02T13:01:59.085Z,21.75
2023-05-02T13:04:41.373Z,21.79
2023-05-02T13:07:08.624Z,21.84
2023-05-02T13:09:35.615Z,21.80
2023-05-02T13:12:03.927Z,21.60
2023-05-02T13:14:31.208Z,21.72
2023-05-02T13:16:58.433Z,21.86
2023-05-02T13:19:25.677Z,21.83
2023-05-02T13:21:52.711Z,22.02
2023-05-02T13:24:19.758Z,22.09
2023-05-02T13:26:46.777Z,22.29
2023-05-02T13:29:13.810Z,22.20
2023-05-02T13:31:40.820Z,22.27
2023-05-02T13:34:07.912Z,22.07
2023-05-02T13:36:36.394Z,22.10
2023-05-02T13:39:04.439Z,22.32
2023-05-02T13:41:31.470Z,22.23
2023-05-02T13:43:58.502Z,22.12
2023-05-02T13:46:25.720Z,22.06
2023-05-02T13:48:52.802Z,22.09
2023-05-02T13:51:19.842Z,22.30
2023-05-02T13:53:46.844Z,22.20
2023-05-02T13:56:14.941Z,22.02
2023-05-02T13:58:42.120Z,21.96
2023-05-02T14:01:09.190Z,21.79
2023-05-02T14:03:36.301Z,22.10
2023-05-02T14:06:03.543Z,21.93
2023-05-02T14:08:30.803Z,21.73
2023-05-02T14:10:57.876Z,21.75
2023-05-02T14:13:25.526Z,21.70
2023-05-02T14:15:54.271Z,21.73
2023-05-02T14:18:21.524Z,21.64
2023-05-02T14:20:48.673Z,22.12
2023-05-02T14:23:15.922Z,22.05
2023-05-02T14:25:43.234Z,21.94
2023-05-02T14:28:10.684Z,21.82
2023-05-02T14:30:37.749Z,21.72
2023-05-02T14:33:04.843Z,21.77
2023-05-02T14:35:31.948Z,21.58
2023-05-02T14:37:58.977Z,21.62
2023-05-02T14:40:26.127Z,21.46
2023-05-02T14:42:53.144Z,21.33
2023-05-02T14:45:20.319Z,21.09
2023-05-02T14:47:47.402Z,21.07
2023-05-02T14:50:14.748Z,21.05
2023-05-02T14:52:42.094Z,20.87
2023-05-02T14:55:09.554Z,20.77
2023-05-02T14:57:37.232Z,20.86
2023-05-02T15:00:10.452Z,20.90
2023-05-02T15:02:37.786Z,20.76
2023-05-02T15:05:07.984Z,20.97
2023-05-02T15:07:35.103Z,20.76
2023-05-02T15:10:02.378Z,20.73
2023-05-02T15:12:29.711Z,20.77
2023-05-02T15:14:56.840Z,20.65
2023-05-02T15:17:23.884Z,20.76
2023-05-02T15:19:51.236Z,20.75
2023-05-02T15:22:18.510Z,20.71
2023-05-02T15:24:45.601Z,20.66
2023-05-02T15:27:12.649Z,20.54
2023-05-02T15:29:39.764Z,20.67
2023-05-02T15:32:06.927Z,20.59
2023-05-02T15:34:34.072Z,20.69
2023-05-02T15:37:01.448Z,20.60
2023-05-02T15:39:28.621Z,20.53
2023-05-02T15:41:55.642Z,20.87
2023-05-02T15:44:22.813Z,20.93
2023-05-02T15:46:49.939Z,21.14
2023-05-02T15:49:17.070Z,20.75
2023-05-02T15:51:44.303Z,20.76
2023-05-02T15:54:11.419Z,20.80
2023-05-02T15:56:38.422Z,20.56
2023-05-02T15:59:05.560Z,20.40
2023-05-02T16:01:32.694Z,20.38
2023-05-02T16:03:59.927Z,20.50
2023-05-02T16:06:27.748Z,20.54
2023-05-02T16:08:55.174Z,20.47
2023-05-02T16:11:22.178Z,20.29
2023-05-02T16:13:49.186Z,20.36
2023-05-02T16:16:16.275Z,20.48
2023-05-02T16:18:43.280Z,20.41
2023-05-02T16:21:11.332Z,20.44
2023-05-02T16:23:38.428Z,20.24
2023-05-02T16:26:05.466Z,20.41
2023-05-02T16:28:32.477Z,20.36
2023-05-02T16:31:04.997Z,20.26
2023-05-02T16:33:32.125Z,20.15
2023-05-02T16:36:03.820Z,20.18
2023-05-02T16:38:31.032Z,19.91
2023-05-02T16:40:58.089Z,19.96
2023-05-02T16:43:25.477Z,19.99
2023-05-02T16:46:04.576Z,19.76
2023-05-02T16:48:32.156Z,19.67
2023-05-02T16:51:01.661Z,19.69
2023-05-02T16:53:30.997Z,19.54
2023-05-02T16:55:59.626Z,19.51
2023-05-02T16:58:28.954Z,19.40
2023-05-02T17:00:56.487Z,19.45
2023-05-02T17:03:23.615Z,19.27
2023-05-02T17:05:50.815Z,19.18
2023-05-02T17:08:17.798Z,19.22
2023-05-02T17:10:50.142Z,19.23
2023-05-02T17:13:17.224Z,19.44
2023-05-02T17:15:44.354Z,19.21
2023-05-02T17:18:11.784Z,19.19
2023-05-02T17:20:39.746Z,19.14
2023-05-02T17:23:07.115Z,19.12
2023-05-02T17:25:34.166Z,19.07
2023-05-02T17:28:01.881Z,19.05
2023-05-02T17:30:29.141Z,18.77
2023-05-02T17:32:56.432Z,18.91
2023-05-02T17:35:23.426Z,18.83
2023-05-02T17:37:50.497Z,18.82
2023-05-02T17:40:17.729Z,18.78
2023-05-02T17:42:46.418Z,18.60
2023-05-02T17:45:13.834Z,18.61
2023-05-02T17:47:41.175Z,18.66
2023-05-02T17:50:08.994Z,18.72
2023-05-02T17:52:36.048Z,18.57
2023-05-02T17:55:03.278Z,18.53
2023-05-02T17:57:30.531Z,18.47
2023-05-02T17:59:58.453Z,18.42
2023-05-02T18:02:28.414Z,18.41
2023-05-02T18:04:55.553Z,18.35
2023-05-02T18:07:28.950Z,18.34
2023-05-02T18:09:57.495Z,18.40
2023-05-02T18:12:24.544Z,18.35
2023-05-02T18:14:52.707Z,18.34
2023-05-02T18:17:20.956Z,18.28
2023-05-02T18:19:50.393Z,18.35
2023-05-02T18:22:19.684Z,18.20
2023-05-02T18:24:47.795Z,18.11
2023-05-02T18:27:15.384Z,18.03
2023-05-02T18:29:43.127Z,17.98
2023-05-02T18:32:10.265Z,18.02
2023-05-02T18:34:38.946Z,17.90
2023-05-02T18:37:07.117Z,17.99
2023-05-02T18:39:35.363Z,17.94
2023-05-02T18:42:03.609Z,17.79
2023-05-02T18:44:33.835Z,17.81
2023-05-02T18:47:01.157Z,17.70
2023-05-02T18:49:28.394Z,17.59
2023-05-02T18:51:55.561Z,17.70
2023-05-02T18:54:27.847Z,17.60
2023-05-02T18:56:54.887Z,17.60
2023-05-02T18:59:22.007Z,17.54
2023-05-02T19:01:49.312Z,17.50
2023-05-02T19:04:16.462Z,17.52
2023-05-02T19:06:43.650Z,17.28
2023-05-02T19:09:13.288Z,17.38
2023-05-02T19:11:41.304Z,17.18
2023-05-02T19:14:08.974Z,16.97
2023-05-02T19:16:38.232Z,16.88
2023-05-02T19:19:06.961Z,16.89
2023-05-02T19:21:34.345Z,16.74
2023-05-02T19:24:01.885Z,16.46
2023-05-02T19:26:29.017Z,16.59
2023-05-02T19:28:57.096Z,16.43
2023-05-02T19:31:24.216Z,16.30
2023-05-02T19:33:54.925Z,16.17
2023-05-02T19:36:24.248Z,16.19
2023-05-02T19:38:53.845Z,15.93
2023-05-02T19:41:22.403Z,15.67
2023-05-02T19:43:50.938Z,15.89
2023-05-02T19:46:18.711Z,15.55
2023-05-02T19:48:46.137Z,15.67
2023-05-02T19:51:13.323Z,15.48
2023-05-02T19:53:40.499Z,15.40
2023-05-02T19:56:07.636Z,15.16
2023-05-02T19:58:35.327Z,14.93
2023-05-02T20:01:03.379Z,14.99
2023-05-02T20:03:30.957Z,14.92
2023-05-02T20:05:58.671Z,15.01
2023-05-02T20:08:27.936Z,15.11
2023-05-02T20:10:56.449Z,15.00
2023-05-02T20:13:23.608Z,15.02
2023-05-02T20:15:52.145Z,14.97
2023-05-02T20:18:19.768Z,15.10
2023-05-02T20:20:46.806Z,14.99
2023-05-02T20:23:14.155Z,14.99
2023-05-02T20:25:42.869Z,14.96
2023-05-02T20:28:10.404Z,14.90
2023-05-02T20:30:39.234Z,14.95
2023-05-02T20:33:14.989Z,14.87
2023-05-02T20:35:43.880Z,14.73
2023-05-02T20:38:11.277Z,14.68
2023-05-02T20:40:40.814Z,14.83
2023-05-02T20:43:08.916Z,14.85
2023-05-02T20:45:36.076Z,14.55
2023-05-02T20:48:03.197Z,14.48
2023-05-02T20:50:31.177Z,14.51
2023-05-02T20:52:59.389Z,14.36
2023-05-02T20:55:26.540Z,14.37
2023-05-02T20:57:53.836Z,14.29
2023-05-02T21:00:23.861Z,14.30
2023-05-02T21:02:51.472Z,14.32
2023-05-02T21:05:18.757Z,14.18
2023-05-02T21:07:45.854Z,14.09
2023-05-02T21:10:13.593Z,14.14
2023-05-02T21:12:41.150Z,14.22
2023-05-02T21:15:08.722Z,13.84
2023-05-02T21:17:35.832Z,13.63
2023-05-02T21:20:03.222Z,13.53
2023-05-02T21:22:30.385Z,13.50
2023-05-02T21:24:57.416Z,13.33
2023-05-02T21:27:24.480Z,13.47
2023-05-02T21:29:51.597Z,13.50
2023-05-02T21:32:18.736Z,13.46
2023-05-02T21:34:45.926Z,13.24
2023-05-02T21:37:12.966Z,13.24
2023-05-02T21:39:40.024Z,13.24
2023-05-02T21:42:07.133Z,13.18
2023-05-02T21:44:34.123Z,13.23
2023-05-02T21:47:01.212Z,13.12
2023-05-02T21:49:31.164Z,13.29
2023-05-02T21:52:01.117Z,13.28
2023-05-02T21:54:28.151Z,13.20
2023-05-02T21:56:55.150Z,13.22
2023-05-02T21:59:22.344Z,13.19
2023-05-02T22:01:49.624Z,13.26
2023-05-02T22:04:17.476Z,13.30
2023-05-02T22:06:51.473Z,13.33
2023-05-02T22:09:19.430Z,13.25
2023-05-02T22:11:47.181Z,13.21
2023-05-02T22:14:14.298Z,13.35
2023-05-02T22:16:41.509Z,13.27
2023-05-02T22:19:11.617Z,13.34
2023-05-02T22:21:38.600Z,13.21
2023-05-02T22:24:06.189Z,13.33
2023-05-02T22:26:33.243Z,13.34
2023-05-02T22:29:00.322Z,13.23
2023-05-02T22:31:27.682Z,13.30
2023-05-02T22:33:54.722Z,13.27
2023-05-02T22:36:21.774Z,13.23
2023-05-02T22:38:48.818Z,13.18
2023-05-02T22:41:15.895Z,13.19
2023-05-02T22:43:42.975Z,13.11
2023-05-02T22:46:10.009Z,12.98
2023-05-02T22:48:37.080Z,12.96
2023-05-02T22:51:04.489Z,12.79
2023-05-02T22:53:31.619Z,12.82
2023-05-02T22:55:58.667Z,12.86
2023-05-02T22:58:25.692Z,12.80
2023-05-02T23:00:52.722Z,12.67
2023-05-02T23:03:19.930Z,12.64
2023-05-02T23:05:47.120Z,12.68
2023-05-02T23:08:14.143Z,12.48
2023-05-02T23:10:41.128Z,12.48
2023-05-02T23:13:08.120Z,12.53
2023-05-02T23:15:35.253Z,12.58
2023-05-02T23:18:02.440Z,12.58
2023-05-02T23:20:29.450Z,12.52
2023-05-02T23:22:56.610Z,12.46
2023-05-02T23:25:26.487Z,12.28
2023-05-02T23:27:53.686Z,12.36
2023-05-02T23:30:21.627Z,12.24
2023-05-02T23:32:48.710Z,12.35
2023-05-02T23:35:16.002Z,12.25
2023-05-02T23:37:44.198Z,12.23
2023-05-02T23:40:12.697Z,12.05
2023-05-02T23:42:40.450Z,12.09
2023-05-02T23:45:11.920Z,12.03
2023-05-02T23:47:38.998Z,11.85
2023-05-02T23:50:07.076Z,11.94
2023-05-02T23:52:34.374Z,11.91
2023-05-02T23:55:01.408Z,11.88
2023-05-02T23:57:30.664Z,11.86
2023-05-02T23:59:57.716Z,11.87
